sensor_id;sensor_type;location;lat;lon;timestamp;P1;durP1;ratioP1;P2;durP2;ratioP2
31798;SDS011;18374;51.136;3.502;2022-09-12T00:01:15;17.85;;;13.73;;
31798;SDS011;18374;51.136;3.502;2022-09-12T00:03:46;16.05;;;12.77;;
31798;SDS011;18374;51.136;3.502;2022-09-12T00:06:16;19.35;;;12.90;;
31798;SDS011;18374;51.136;3.502;2022-09-12T00:08:56;22.15;;;11.95;;
31798;SDS011;18374;51.136;3.502;2022-09-12T00:11:26;18.15;;;12.13;;
31798;SDS011;18374;51.136;3.502;2022-09-12T00:14:01;16.98;;;12.73;;
31798;SDS011;18374;51.136;3.502;2022-09-12T00:16:30;14.95;;;12.57;;
31798;SDS011;18374;51.136;3.502;2022-09-12T00:19:01;15.32;;;12.73;;
31798;SDS011;18374;51.136;3.502;2022-09-12T00:21:31;15.43;;;11.85;;
31798;SDS011;18374;51.136;3.502;2022-09-12T00:24:00;16.88;;;10.85;;
31798;SDS011;18374;51.136;3.502;2022-09-12T00:26:33;14.23;;;11.57;;
31798;SDS011;18374;51.136;3.502;2022-09-12T00:29:02;18.33;;;13.02;;
31798;SDS011;18374;51.136;3.502;2022-09-12T00:31:30;15.75;;;11.27;;
31798;SDS011;18374;51.136;3.502;2022-09-12T00:33:58;16.52;;;12.52;;
31798;SDS011;18374;51.136;3.502;2022-09-12T00:36:28;17.48;;;11.93;;
31798;SDS011;18374;51.136;3.502;2022-09-12T00:38:56;16.40;;;11.60;;
31798;SDS011;18374;51.136;3.502;2022-09-12T00:41:31;17.20;;;12.55;;
31798;SDS011;18374;51.136;3.502;2022-09-12T00:46:37;17.17;;;12.30;;
31798;SDS011;18374;51.136;3.502;2022-09-12T00:51:51;16.70;;;12.07;;
31798;SDS011;18374;51.136;3.502;2022-09-12T00:54:31;14.30;;;11.20;;
31798;SDS011;18374;51.136;3.502;2022-09-12T00:57:08;16.55;;;11.32;;
31798;SDS011;18374;51.136;3.502;2022-09-12T00:59:44;13.35;;;9.73;;
31798;SDS011;18374;51.136;3.502;2022-09-12T01:02:27;18.10;;;12.10;;
31798;SDS011;18374;51.136;3.502;2022-09-12T01:04:55;17.83;;;11.75;;
31798;SDS011;18374;51.136;3.502;2022-09-12T01:07:23;17.02;;;11.82;;
31798;SDS011;18374;51.136;3.502;2022-09-12T01:09:51;18.35;;;11.50;;
31798;SDS011;18374;51.136;3.502;2022-09-12T01:12:19;19.30;;;13.10;;
31798;SDS011;18374;51.136;3.502;2022-09-12T01:14:47;19.48;;;11.90;;
31798;SDS011;18374;51.136;3.502;2022-09-12T01:17:15;19.55;;;12.65;;
31798;SDS011;18374;51.136;3.502;2022-09-12T01:25:59;18.10;;;11.82;;
31798;SDS011;18374;51.136;3.502;2022-09-12T01:28:58;13.65;;;10.57;;
31798;SDS011;18374;51.136;3.502;2022-09-12T01:32:03;16.52;;;11.27;;
31798;SDS011;18374;51.136;3.502;2022-09-12T01:35:15;14.75;;;10.82;;
31798;SDS011;18374;51.136;3.502;2022-09-12T01:40:33;13.88;;;9.32;;
31798;SDS011;18374;51.136;3.502;2022-09-12T01:43:57;11.23;;;9.00;;
31798;SDS011;18374;51.136;3.502;2022-09-12T01:46:58;12.77;;;8.93;;
31798;SDS011;18374;51.136;3.502;2022-09-12T01:52:19;14.73;;;10.77;;
31798;SDS011;18374;51.136;3.502;2022-09-12T01:54:54;14.95;;;10.88;;
31798;SDS011;18374;51.136;3.502;2022-09-12T01:57:49;13.98;;;9.77;;
31798;SDS011;18374;51.136;3.502;2022-09-12T02:00:25;12.57;;;10.15;;
31798;SDS011;18374;51.136;3.502;2022-09-12T02:03:00;11.32;;;8.98;;
31798;SDS011;18374;51.136;3.502;2022-09-12T02:05:46;13.07;;;8.65;;
31798;SDS011;18374;51.136;3.502;2022-09-12T02:08:27;12.77;;;9.65;;
31798;SDS011;18374;51.136;3.502;2022-09-12T02:11:08;13.88;;;9.68;;
31798;SDS011;18374;51.136;3.502;2022-09-12T02:16:24;11.88;;;9.10;;
31798;SDS011;18374;51.136;3.502;2022-09-12T02:19:04;14.50;;;9.60;;
31798;SDS011;18374;51.136;3.502;2022-09-12T02:21:57;11.40;;;9.23;;
31798;SDS011;18374;51.136;3.502;2022-09-12T02:24:30;14.50;;;10.13;;
31798;SDS011;18374;51.136;3.502;2022-09-12T02:29:42;13.38;;;9.77;;
31798;SDS011;18374;51.136;3.502;2022-09-12T02:32:34;10.63;;;7.63;;
31798;SDS011;18374;51.136;3.502;2022-09-12T02:35:12;10.20;;;7.93;;
31798;SDS011;18374;51.136;3.502;2022-09-12T02:38:59;13.82;;;8.18;;
31798;SDS011;18374;51.136;3.502;2022-09-12T02:41:12;12.38;;;7.97;;
31798;SDS011;18374;51.136;3.502;2022-09-12T02:43:44;13.07;;;9.20;;
31798;SDS011;18374;51.136;3.502;2022-09-12T02:46:21;11.25;;;9.80;;
31798;SDS011;18374;51.136;3.502;2022-09-12T02:49:23;14.95;;;10.00;;
31798;SDS011;18374;51.136;3.502;2022-09-12T02:52:08;15.27;;;11.20;;
31798;SDS011;18374;51.136;3.502;2022-09-12T02:54:36;14.50;;;10.77;;
31798;SDS011;18374;51.136;3.502;2022-09-12T02:57:05;13.98;;;10.95;;
31798;SDS011;18374;51.136;3.502;2022-09-12T02:59:50;16.63;;;11.25;;
31798;SDS011;18374;51.136;3.502;2022-09-12T03:02:34;15.45;;;11.80;;
31798;SDS011;18374;51.136;3.502;2022-09-12T03:20:02;15.05;;;11.35;;
31798;SDS011;18374;51.136;3.502;2022-09-12T03:22:46;14.88;;;11.18;;
31798;SDS011;18374;51.136;3.502;2022-09-12T03:25:27;16.08;;;11.57;;
31798;SDS011;18374;51.136;3.502;2022-09-12T03:28:15;19.42;;;11.63;;
31798;SDS011;18374;51.136;3.502;2022-09-12T03:30:45;16.55;;;11.23;;
31798;SDS011;18374;51.136;3.502;2022-09-12T03:33:16;20.17;;;11.60;;
31798;SDS011;18374;51.136;3.502;2022-09-12T03:35:47;18.05;;;11.23;;
31798;SDS011;18374;51.136;3.502;2022-09-12T03:38:16;17.80;;;11.50;;
31798;SDS011;18374;51.136;3.502;2022-09-12T03:40:44;17.63;;;12.32;;
31798;SDS011;18374;51.136;3.502;2022-09-12T03:43:18;14.45;;;11.77;;
31798;SDS011;18374;51.136;3.502;2022-09-12T03:45:48;16.02;;;11.60;;
31798;SDS011;18374;51.136;3.502;2022-09-12T03:48:22;15.85;;;11.57;;
31798;SDS011;18374;51.136;3.502;2022-09-12T03:50:50;15.05;;;11.43;;
31798;SDS011;18374;51.136;3.502;2022-09-12T03:53:18;16.70;;;10.63;;
31798;SDS011;18374;51.136;3.502;2022-09-12T03:55:48;15.82;;;11.27;;
31798;SDS011;18374;51.136;3.502;2022-09-12T03:58:28;14.15;;;10.80;;
31798;SDS011;18374;51.136;3.502;2022-09-12T04:01:10;14.07;;;10.20;;
31798;SDS011;18374;51.136;3.502;2022-09-12T04:03:44;11.98;;;9.60;;
31798;SDS011;18374;51.136;3.502;2022-09-12T04:06:15;11.25;;;8.02;;
31798;SDS011;18374;51.136;3.502;2022-09-12T04:08:48;11.55;;;8.52;;
31798;SDS011;18374;51.136;3.502;2022-09-12T04:11:19;10.63;;;8.63;;
31798;SDS011;18374;51.136;3.502;2022-09-12T04:13:48;13.93;;;10.25;;
31798;SDS011;18374;51.136;3.502;2022-09-12T04:16:19;11.20;;;8.90;;
31798;SDS011;18374;51.136;3.502;2022-09-12T04:21:42;13.98;;;10.50;;
31798;SDS011;18374;51.136;3.502;2022-09-12T04:24:10;19.10;;;11.32;;
31798;SDS011;18374;51.136;3.502;2022-09-12T04:26:38;13.15;;;10.77;;
31798;SDS011;18374;51.136;3.502;2022-09-12T04:29:05;15.60;;;10.65;;
31798;SDS011;18374;51.136;3.502;2022-09-12T04:31:39;19.55;;;10.85;;
31798;SDS011;18374;51.136;3.502;2022-09-12T04:34:30;15.40;;;10.88;;
31798;SDS011;18374;51.136;3.502;2022-09-12T04:37:01;14.27;;;11.50;;
31798;SDS011;18374;51.136;3.502;2022-09-12T04:39:33;12.07;;;10.18;;
31798;SDS011;18374;51.136;3.502;2022-09-12T04:42:13;15.23;;;11.00;;
31798;SDS011;18374;51.136;3.502;2022-09-12T04:44:49;15.63;;;11.57;;
31798;SDS011;18374;51.136;3.502;2022-09-12T04:47:19;15.40;;;10.63;;
31798;SDS011;18374;51.136;3.502;2022-09-12T04:49:49;18.00;;;12.95;;
31798;SDS011;18374;51.136;3.502;2022-09-12T04:52:31;15.82;;;11.57;;
31798;SDS011;18374;51.136;3.502;2022-09-12T04:58:30;18.55;;;10.70;;
31798;SDS011;18374;51.136;3.502;2022-09-12T05:01:18;16.20;;;11.43;;
31798;SDS011;18374;51.136;3.502;2022-09-12T05:04:01;14.73;;;11.63;;
31798;SDS011;18374;51.136;3.502;2022-09-12T05:06:33;14.98;;;11.60;;
31798;SDS011;18374;51.136;3.502;2022-09-12T05:09:21;16.27;;;12.13;;
31798;SDS011;18374;51.136;3.502;2022-09-12T05:12:24;16.80;;;11.80;;
31798;SDS011;18374;51.136;3.502;2022-09-12T05:15:01;16.58;;;12.05;;
31798;SDS011;18374;51.136;3.502;2022-09-12T05:18:04;15.65;;;11.82;;
31798;SDS011;18374;51.136;3.502;2022-09-12T05:21:13;20.35;;;12.27;;
31798;SDS011;18374;51.136;3.502;2022-09-12T05:24:36;20.08;;;12.48;;
31798;SDS011;18374;51.136;3.502;2022-09-12T05:27:37;21.38;;;13.18;;
31798;SDS011;18374;51.136;3.502;2022-09-12T05:30:18;17.10;;;12.82;;
31798;SDS011;18374;51.136;3.502;2022-09-12T05:36:26;16.53;;;12.53;;
31798;SDS011;18374;51.136;3.502;2022-09-12T05:40:08;18.30;;;12.02;;
31798;SDS011;18374;51.136;3.502;2022-09-12T05:42:59;14.65;;;10.98;;
31798;SDS011;18374;51.136;3.502;2022-09-12T05:45:50;15.90;;;11.38;;
31798;SDS011;18374;51.136;3.502;2022-09-12T05:48:49;18.17;;;11.77;;
31798;SDS011;18374;51.136;3.502;2022-09-12T05:52:35;17.80;;;12.00;;
31798;SDS011;18374;51.136;3.502;2022-09-12T06:01:15;15.98;;;11.57;;
31798;SDS011;18374;51.136;3.502;2022-09-12T06:22:40;17.48;;;12.15;;
31798;SDS011;18374;51.136;3.502;2022-09-12T06:25:11;17.48;;;12.48;;
31798;SDS011;18374;51.136;3.502;2022-09-12T06:27:40;16.70;;;11.73;;
31798;SDS011;18374;51.136;3.502;2022-09-12T06:30:07;15.88;;;12.25;;
31798;SDS011;18374;51.136;3.502;2022-09-12T06:32:36;18.85;;;13.80;;
31798;SDS011;18374;51.136;3.502;2022-09-12T06:35:04;19.40;;;13.13;;
31798;SDS011;18374;51.136;3.502;2022-09-12T06:37:31;18.77;;;13.82;;
31798;SDS011;18374;51.136;3.502;2022-09-12T06:39:59;19.33;;;13.05;;
31798;SDS011;18374;51.136;3.502;2022-09-12T06:47:14;19.77;;;13.10;;
31798;SDS011;18374;51.136;3.502;2022-09-12T06:49:46;20.02;;;11.63;;
31798;SDS011;18374;51.136;3.502;2022-09-12T06:52:49;19.38;;;11.55;;
31798;SDS011;18374;51.136;3.502;2022-09-12T06:55:21;19.35;;;13.82;;
31798;SDS011;18374;51.136;3.502;2022-09-12T06:58:10;19.08;;;12.60;;
31798;SDS011;18374;51.136;3.502;2022-09-12T07:01:32;20.52;;;12.77;;
31798;SDS011;18374;51.136;3.502;2022-09-12T07:05:07;18.63;;;13.45;;
31798;SDS011;18374;51.136;3.502;2022-09-12T07:08:29;23.25;;;12.13;;
31798;SDS011;18374;51.136;3.502;2022-09-12T07:14:31;12.90;;;10.70;;
31798;SDS011;18374;51.136;3.502;2022-09-12T07:17:09;18.45;;;11.82;;
31798;SDS011;18374;51.136;3.502;2022-09-12T07:20:31;17.00;;;11.52;;
31798;SDS011;18374;51.136;3.502;2022-09-12T07:26:41;16.73;;;10.88;;
31798;SDS011;18374;51.136;3.502;2022-09-12T07:32:25;15.77;;;11.20;;
31798;SDS011;18374;51.136;3.502;2022-09-12T07:35:03;17.73;;;11.50;;
31798;SDS011;18374;51.136;3.502;2022-09-12T07:43:06;18.60;;;10.57;;
31798;SDS011;18374;51.136;3.502;2022-09-12T07:45:36;14.27;;;10.05;;
31798;SDS011;18374;51.136;3.502;2022-09-12T07:48:08;14.27;;;9.70;;
31798;SDS011;18374;51.136;3.502;2022-09-12T07:50:35;16.00;;;10.55;;
31798;SDS011;18374;51.136;3.502;2022-09-12T07:53:43;12.60;;;9.45;;
31798;SDS011;18374;51.136;3.502;2022-09-12T07:56:11;17.95;;;9.65;;
31798;SDS011;18374;51.136;3.502;2022-09-12T07:58:40;12.05;;;8.90;;
31798;SDS011;18374;51.136;3.502;2022-09-12T08:01:10;13.23;;;8.65;;
31798;SDS011;18374;51.136;3.502;2022-09-12T08:03:44;16.23;;;9.90;;
31798;SDS011;18374;51.136;3.502;2022-09-12T08:06:15;11.95;;;9.13;;
31798;SDS011;18374;51.136;3.502;2022-09-12T08:08:55;11.80;;;8.20;;
31798;SDS011;18374;51.136;3.502;2022-09-12T08:11:51;14.40;;;8.90;;
31798;SDS011;18374;51.136;3.502;2022-09-12T08:14:19;12.98;;;8.85;;
31798;SDS011;18374;51.136;3.502;2022-09-12T08:16:47;14.02;;;8.63;;
31798;SDS011;18374;51.136;3.502;2022-09-12T08:19:15;10.23;;;8.25;;
31798;SDS011;18374;51.136;3.502;2022-09-12T08:21:43;11.02;;;8.13;;
31798;SDS011;18374;51.136;3.502;2022-09-12T08:24:11;11.10;;;8.63;;
31798;SDS011;18374;51.136;3.502;2022-09-12T08:26:38;12.40;;;7.97;;
31798;SDS011;18374;51.136;3.502;2022-09-12T08:29:06;11.43;;;7.32;;
31798;SDS011;18374;51.136;3.502;2022-09-12T08:31:34;12.68;;;7.90;;
31798;SDS011;18374;51.136;3.502;2022-09-12T08:34:04;11.25;;;7.45;;
31798;SDS011;18374;51.136;3.502;2022-09-12T08:36:33;11.93;;;8.30;;
31798;SDS011;18374;51.136;3.502;2022-09-12T08:39:05;8.70;;;6.85;;
31798;SDS011;18374;51.136;3.502;2022-09-12T08:41:35;11.40;;;7.65;;
31798;SDS011;18374;51.136;3.502;2022-09-12T08:47:43;8.45;;;7.07;;
31798;SDS011;18374;51.136;3.502;2022-09-12T08:50:14;10.55;;;7.70;;
31798;SDS011;18374;51.136;3.502;2022-09-12T08:52:59;10.52;;;7.40;;
31798;SDS011;18374;51.136;3.502;2022-09-12T08:55:43;9.38;;;7.30;;
31798;SDS011;18374;51.136;3.502;2022-09-12T08:58:22;11.02;;;6.85;;
31798;SDS011;18374;51.136;3.502;2022-09-12T09:01:00;12.27;;;6.47;;
31798;SDS011;18374;51.136;3.502;2022-09-12T09:07:21;8.20;;;6.37;;
31798;SDS011;18374;51.136;3.502;2022-09-12T09:10:24;7.32;;;5.55;;
31798;SDS011;18374;51.136;3.502;2022-09-12T09:16:38;8.60;;;5.78;;
31798;SDS011;18374;51.136;3.502;2022-09-12T09:19:14;9.70;;;6.13;;
31798;SDS011;18374;51.136;3.502;2022-09-12T09:28:18;7.53;;;5.43;;
31798;SDS011;18374;51.136;3.502;2022-09-12T09:31:11;9.75;;;5.03;;
31798;SDS011;18374;51.136;3.502;2022-09-12T09:33:46;8.77;;;5.15;;
31798;SDS011;18374;51.136;3.502;2022-09-12T09:36:21;7.97;;;5.07;;
31798;SDS011;18374;51.136;3.502;2022-09-12T09:38:53;8.88;;;5.82;;
31798;SDS011;18374;51.136;3.502;2022-09-12T09:44:27;7.95;;;4.75;;
31798;SDS011;18374;51.136;3.502;2022-09-12T09:46:56;10.98;;;4.20;;
31798;SDS011;18374;51.136;3.502;2022-09-12T09:49:26;6.25;;;4.45;;
31798;SDS011;18374;51.136;3.502;2022-09-12T09:51:57;6.05;;;4.72;;
31798;SDS011;18374;51.136;3.502;2022-09-12T09:54:28;7.15;;;4.60;;
31798;SDS011;18374;51.136;3.502;2022-09-12T10:05:47;7.57;;;3.90;;
31798;SDS011;18374;51.136;3.502;2022-09-12T10:08:24;4.88;;;4.28;;
31798;SDS011;18374;51.136;3.502;2022-09-12T10:11:25;7.20;;;4.10;;
31798;SDS011;18374;51.136;3.502;2022-09-12T10:13:55;5.20;;;3.42;;
31798;SDS011;18374;51.136;3.502;2022-09-12T10:16:31;6.47;;;4.00;;
31798;SDS011;18374;51.136;3.502;2022-09-12T10:19:22;5.05;;;3.22;;
31798;SDS011;18374;51.136;3.502;2022-09-12T10:22:01;6.05;;;4.05;;
31798;SDS011;18374;51.136;3.502;2022-09-12T10:24:38;5.85;;;3.17;;
31798;SDS011;18374;51.136;3.502;2022-09-12T10:27:18;5.65;;;3.33;;
31798;SDS011;18374;51.136;3.502;2022-09-12T10:29:55;4.88;;;3.38;;
31798;SDS011;18374;51.136;3.502;2022-09-12T10:32:38;7.68;;;3.67;;
31798;SDS011;18374;51.136;3.502;2022-09-12T10:35:28;4.82;;;2.85;;
31798;SDS011;18374;51.136;3.502;2022-09-12T10:38:00;6.68;;;3.15;;
31798;SDS011;18374;51.136;3.502;2022-09-12T10:40:37;6.30;;;3.28;;
31798;SDS011;18374;51.136;3.502;2022-09-12T10:43:17;5.55;;;2.97;;
31798;SDS011;18374;51.136;3.502;2022-09-12T10:48:45;4.57;;;2.90;;
31798;SDS011;18374;51.136;3.502;2022-09-12T10:53:52;6.93;;;2.92;;
31798;SDS011;18374;51.136;3.502;2022-09-12T10:59:19;6.50;;;2.80;;
31798;SDS011;18374;51.136;3.502;2022-09-12T11:04:58;4.72;;;2.78;;
31798;SDS011;18374;51.136;3.502;2022-09-12T11:07:46;4.40;;;3.08;;
31798;SDS011;18374;51.136;3.502;2022-09-12T11:10:33;2.78;;;2.47;;
31798;SDS011;18374;51.136;3.502;2022-09-12T11:16:39;4.38;;;2.42;;
31798;SDS011;18374;51.136;3.502;2022-09-12T11:25:33;4.90;;;2.25;;
31798;SDS011;18374;51.136;3.502;2022-09-12T11:28:34;4.47;;;2.47;;
31798;SDS011;18374;51.136;3.502;2022-09-12T11:42:46;7.93;;;2.67;;
31798;SDS011;18374;51.136;3.502;2022-09-12T11:45:20;4.40;;;2.40;;
31798;SDS011;18374;51.136;3.502;2022-09-12T11:47:56;6.20;;;3.17;;
31798;SDS011;18374;51.136;3.502;2022-09-12T11:50:30;5.07;;;2.55;;
31798;SDS011;18374;51.136;3.502;2022-09-12T11:53:10;4.97;;;2.80;;
31798;SDS011;18374;51.136;3.502;2022-09-12T11:55:52;4.38;;;2.50;;
31798;SDS011;18374;51.136;3.502;2022-09-12T11:58:30;4.57;;;2.72;;
31798;SDS011;18374;51.136;3.502;2022-09-12T12:01:05;4.25;;;2.33;;
31798;SDS011;18374;51.136;3.502;2022-09-12T12:03:44;6.22;;;2.42;;
31798;SDS011;18374;51.136;3.502;2022-09-12T12:06:18;2.65;;;2.00;;
31798;SDS011;18374;51.136;3.502;2022-09-12T12:09:04;7.03;;;2.60;;
31798;SDS011;18374;51.136;3.502;2022-09-12T12:11:42;9.98;;;2.42;;
31798;SDS011;18374;51.136;3.502;2022-09-12T12:14:17;3.78;;;1.80;;
31798;SDS011;18374;51.136;3.502;2022-09-12T12:16:50;3.78;;;2.00;;
31798;SDS011;18374;51.136;3.502;2022-09-12T12:19:23;3.60;;;2.00;;
31798;SDS011;18374;51.136;3.502;2022-09-12T12:30:57;6.93;;;2.63;;
31798;SDS011;18374;51.136;3.502;2022-09-12T12:38:34;3.67;;;2.00;;
31798;SDS011;18374;51.136;3.502;2022-09-12T12:43:45;5.82;;;1.88;;
31798;SDS011;18374;51.136;3.502;2022-09-12T12:46:16;3.25;;;1.73;;
31798;SDS011;18374;51.136;3.502;2022-09-12T12:51:55;3.35;;;2.00;;
31798;SDS011;18374;51.136;3.502;2022-09-12T12:54:32;2.38;;;1.40;;
31798;SDS011;18374;51.136;3.502;2022-09-12T12:57:22;2.55;;;1.70;;
31798;SDS011;18374;51.136;3.502;2022-09-12T12:59:59;3.78;;;1.90;;
31798;SDS011;18374;51.136;3.502;2022-09-12T13:05:16;3.13;;;1.40;;
31798;SDS011;18374;51.136;3.502;2022-09-12T13:19:13;2.97;;;1.70;;
31798;SDS011;18374;51.136;3.502;2022-09-12T13:21:55;5.00;;;2.20;;
31798;SDS011;18374;51.136;3.502;2022-09-12T13:24:27;4.95;;;2.13;;
31798;SDS011;18374;51.136;3.502;2022-09-12T13:26:55;4.28;;;1.90;;
31798;SDS011;18374;51.136;3.502;2022-09-12T13:29:24;2.58;;;1.85;;
31798;SDS011;18374;51.136;3.502;2022-09-12T13:31:54;2.20;;;1.70;;
31798;SDS011;18374;51.136;3.502;2022-09-12T13:37:44;3.58;;;1.75;;
31798;SDS011;18374;51.136;3.502;2022-09-12T13:43:24;6.93;;;2.20;;
31798;SDS011;18374;51.136;3.502;2022-09-12T13:46:11;3.78;;;1.90;;
31798;SDS011;18374;51.136;3.502;2022-09-12T13:48:43;4.60;;;1.60;;
31798;SDS011;18374;51.136;3.502;2022-09-12T13:51:18;5.05;;;1.75;;
31798;SDS011;18374;51.136;3.502;2022-09-12T13:53:54;4.05;;;1.75;;
31798;SDS011;18374;51.136;3.502;2022-09-12T13:56:26;1.58;;;1.42;;
31798;SDS011;18374;51.136;3.502;2022-09-12T13:58:55;4.10;;;1.85;;
31798;SDS011;18374;51.136;3.502;2022-09-12T14:01:42;6.88;;;2.17;;
31798;SDS011;18374;51.136;3.502;2022-09-12T14:04:17;2.63;;;1.50;;
31798;SDS011;18374;51.136;3.502;2022-09-12T14:07:14;3.53;;;1.38;;
31798;SDS011;18374;51.136;3.502;2022-09-12T14:09:54;2.30;;;1.42;;
31798;SDS011;18374;51.136;3.502;2022-09-12T14:12:33;4.60;;;1.50;;
31798;SDS011;18374;51.136;3.502;2022-09-12T14:15:19;7.68;;;1.70;;
31798;SDS011;18374;51.136;3.502;2022-09-12T14:17:51;5.70;;;1.67;;
31798;SDS011;18374;51.136;3.502;2022-09-12T14:20:36;5.15;;;1.70;;
31798;SDS011;18374;51.136;3.502;2022-09-12T14:23:08;5.20;;;1.42;;
31798;SDS011;18374;51.136;3.502;2022-09-12T14:25:55;205.18;;;43.35;;
31798;SDS011;18374;51.136;3.502;2022-09-12T14:28:26;65.30;;;16.55;;
31798;SDS011;18374;51.136;3.502;2022-09-12T14:31:03;333.05;;;67.80;;
31798;SDS011;18374;51.136;3.502;2022-09-12T14:33:54;99.50;;;21.77;;
31798;SDS011;18374;51.136;3.502;2022-09-12T14:36:50;4.30;;;1.60;;
31798;SDS011;18374;51.136;3.502;2022-09-12T14:42:01;4.35;;;1.40;;
31798;SDS011;18374;51.136;3.502;2022-09-12T14:44:42;2.22;;;1.20;;
31798;SDS011;18374;51.136;3.502;2022-09-12T14:47:26;4.22;;;1.60;;
31798;SDS011;18374;51.136;3.502;2022-09-12T14:56:20;4.85;;;1.60;;
31798;SDS011;18374;51.136;3.502;2022-09-12T14:58:40;2.78;;;1.30;;
31798;SDS011;18374;51.136;3.502;2022-09-12T15:10:29;4.43;;;1.20;;
31798;SDS011;18374;51.136;3.502;2022-09-12T15:15:35;3.60;;;1.40;;
31798;SDS011;18374;51.136;3.502;2022-09-12T15:18:05;3.30;;;1.50;;
31798;SDS011;18374;51.136;3.502;2022-09-12T15:20:37;1.83;;;1.33;;
31798;SDS011;18374;51.136;3.502;2022-09-12T15:23:18;5.13;;;1.60;;
31798;SDS011;18374;51.136;3.502;2022-09-12T15:25:59;1.80;;;1.30;;
31798;SDS011;18374;51.136;3.502;2022-09-12T15:28:30;1.15;;;1.05;;
31798;SDS011;18374;51.136;3.502;2022-09-12T15:31:02;3.85;;;1.50;;
31798;SDS011;18374;51.136;3.502;2022-09-12T15:33:51;1.85;;;1.02;;
31798;SDS011;18374;51.136;3.502;2022-09-12T15:40:04;2.15;;;1.50;;
31798;SDS011;18374;51.136;3.502;2022-09-12T15:42:34;2.00;;;1.27;;
31798;SDS011;18374;51.136;3.502;2022-09-12T15:45:09;2.13;;;1.23;;
31798;SDS011;18374;51.136;3.502;2022-09-12T15:48:22;2.35;;;1.38;;
31798;SDS011;18374;51.136;3.502;2022-09-12T15:50:50;1.65;;;1.05;;
31798;SDS011;18374;51.136;3.502;2022-09-12T15:53:18;2.03;;;1.27;;
31798;SDS011;18374;51.136;3.502;2022-09-12T15:55:45;2.58;;;1.23;;
31798;SDS011;18374;51.136;3.502;2022-09-12T15:58:15;4.43;;;1.30;;
31798;SDS011;18374;51.136;3.502;2022-09-12T16:00:43;2.28;;;1.38;;
31798;SDS011;18374;51.136;3.502;2022-09-12T16:03:32;2.08;;;0.98;;
31798;SDS011;18374;51.136;3.502;2022-09-12T16:06:00;3.85;;;1.25;;
31798;SDS011;18374;51.136;3.502;2022-09-12T16:08:31;3.50;;;1.50;;
31798;SDS011;18374;51.136;3.502;2022-09-12T16:11:02;4.35;;;1.30;;
31798;SDS011;18374;51.136;3.502;2022-09-12T16:13:36;2.58;;;1.08;;
31798;SDS011;18374;51.136;3.502;2022-09-12T16:16:03;5.22;;;1.20;;
31798;SDS011;18374;51.136;3.502;2022-09-12T16:18:32;1.98;;;1.27;;
31798;SDS011;18374;51.136;3.502;2022-09-12T16:20:59;2.72;;;1.08;;
31798;SDS011;18374;51.136;3.502;2022-09-12T16:23:27;1.88;;;1.25;;
31798;SDS011;18374;51.136;3.502;2022-09-12T16:25:58;1.98;;;1.02;;
31798;SDS011;18374;51.136;3.502;2022-09-12T16:28:29;6.57;;;1.50;;
31798;SDS011;18374;51.136;3.502;2022-09-12T16:30:59;7.32;;;1.88;;
31798;SDS011;18374;51.136;3.502;2022-09-12T16:44:55;4.18;;;1.20;;
31798;SDS011;18374;51.136;3.502;2022-09-12T16:47:23;5.47;;;1.40;;
31798;SDS011;18374;51.136;3.502;2022-09-12T16:49:54;5.97;;;1.55;;
31798;SDS011;18374;51.136;3.502;2022-09-12T16:52:22;3.85;;;1.38;;
31798;SDS011;18374;51.136;3.502;2022-09-12T16:54:55;1.33;;;1.10;;
31798;SDS011;18374;51.136;3.502;2022-09-12T16:57:23;8.93;;;1.45;;
31798;SDS011;18374;51.136;3.502;2022-09-12T16:59:51;3.40;;;1.30;;
31798;SDS011;18374;51.136;3.502;2022-09-12T17:02:18;2.45;;;1.10;;
31798;SDS011;18374;51.136;3.502;2022-09-12T17:04:49;6.22;;;1.10;;
31798;SDS011;18374;51.136;3.502;2022-09-12T17:07:18;2.15;;;1.23;;
31798;SDS011;18374;51.136;3.502;2022-09-12T17:09:46;6.40;;;1.23;;
31798;SDS011;18374;51.136;3.502;2022-09-12T17:12:14;2.13;;;1.10;;
31798;SDS011;18374;51.136;3.502;2022-09-12T17:14:41;2.28;;;1.00;;
31798;SDS011;18374;51.136;3.502;2022-09-12T17:17:15;1.65;;;1.10;;
31798;SDS011;18374;51.136;3.502;2022-09-12T17:19:42;5.93;;;1.35;;
31798;SDS011;18374;51.136;3.502;2022-09-12T17:22:10;3.05;;;1.30;;
31798;SDS011;18374;51.136;3.502;2022-09-12T17:24:38;3.83;;;1.20;;
31798;SDS011;18374;51.136;3.502;2022-09-12T17:27:08;2.50;;;1.20;;
31798;SDS011;18374;51.136;3.502;2022-09-12T17:30:15;4.40;;;2.15;;
31798;SDS011;18374;51.136;3.502;2022-09-12T17:33:27;2.80;;;1.20;;
31798;SDS011;18374;51.136;3.502;2022-09-12T17:36:09;3.05;;;1.48;;
31798;SDS011;18374;51.136;3.502;2022-09-12T17:38:51;5.57;;;1.25;;
31798;SDS011;18374;51.136;3.502;2022-09-12T17:41:41;2.13;;;1.33;;
31798;SDS011;18374;51.136;3.502;2022-09-12T17:44:43;4.60;;;1.60;;
31798;SDS011;18374;51.136;3.502;2022-09-12T17:48:06;4.82;;;1.38;;
31798;SDS011;18374;51.136;3.502;2022-09-12T17:52:48;4.20;;;1.60;;
31798;SDS011;18374;51.136;3.502;2022-09-12T17:55:39;4.45;;;1.25;;
31798;SDS011;18374;51.136;3.502;2022-09-12T17:58:28;3.15;;;1.15;;
31798;SDS011;18374;51.136;3.502;2022-09-12T18:09:28;3.75;;;1.45;;
31798;SDS011;18374;51.136;3.502;2022-09-12T18:11:57;4.63;;;1.35;;
31798;SDS011;18374;51.136;3.502;2022-09-12T18:14:27;2.72;;;1.70;;
31798;SDS011;18374;51.136;3.502;2022-09-12T18:17:05;9.52;;;2.33;;
31798;SDS011;18374;51.136;3.502;2022-09-12T18:19:43;4.82;;;1.83;;
31798;SDS011;18374;51.136;3.502;2022-09-12T18:22:25;7.05;;;2.05;;
31798;SDS011;18374;51.136;3.502;2022-09-12T18:24:58;4.50;;;1.85;;
31798;SDS011;18374;51.136;3.502;2022-09-12T18:27:41;5.70;;;1.77;;
31798;SDS011;18374;51.136;3.502;2022-09-12T18:33:37;5.53;;;1.50;;
31798;SDS011;18374;51.136;3.502;2022-09-12T18:37:04;5.80;;;1.65;;
31798;SDS011;18374;51.136;3.502;2022-09-12T18:40:20;2.88;;;1.40;;
31798;SDS011;18374;51.136;3.502;2022-09-12T18:42:57;6.13;;;1.55;;
31798;SDS011;18374;51.136;3.502;2022-09-12T18:46:04;1.73;;;1.40;;
31798;SDS011;18374;51.136;3.502;2022-09-12T18:48:35;3.15;;;1.70;;
31798;SDS011;18374;51.136;3.502;2022-09-12T18:51:17;3.03;;;1.40;;
31798;SDS011;18374;51.136;3.502;2022-09-12T18:54:11;2.97;;;1.63;;
31798;SDS011;18374;51.136;3.502;2022-09-12T18:57:01;2.58;;;1.48;;
31798;SDS011;18374;51.136;3.502;2022-09-12T18:59:30;2.33;;;1.58;;
31798;SDS011;18374;51.136;3.502;2022-09-12T19:01:59;4.60;;;1.67;;
31798;SDS011;18374;51.136;3.502;2022-09-12T19:04:28;5.03;;;1.85;;
31798;SDS011;18374;51.136;3.502;2022-09-12T19:07:12;3.67;;;1.80;;
31798;SDS011;18374;51.136;3.502;2022-09-12T19:09:50;2.38;;;1.80;;
31798;SDS011;18374;51.136;3.502;2022-09-12T19:12:20;2.50;;;1.73;;
31798;SDS011;18374;51.136;3.502;2022-09-12T19:14:48;2.47;;;1.48;;
31798;SDS011;18374;51.136;3.502;2022-09-12T19:17:18;5.00;;;2.10;;
31798;SDS011;18374;51.136;3.502;2022-09-12T19:19:46;4.60;;;2.00;;
31798;SDS011;18374;51.136;3.502;2022-09-12T19:22:14;6.05;;;1.73;;
31798;SDS011;18374;51.136;3.502;2022-09-12T19:24:42;5.03;;;2.25;;
31798;SDS011;18374;51.136;3.502;2022-09-12T19:27:10;6.10;;;1.70;;
31798;SDS011;18374;51.136;3.502;2022-09-12T19:45:19;3.33;;;1.60;;
31798;SDS011;18374;51.136;3.502;2022-09-12T19:56:07;4.65;;;1.55;;
31798;SDS011;18374;51.136;3.502;2022-09-12T19:59:23;3.40;;;1.75;;
31798;SDS011;18374;51.136;3.502;2022-09-12T20:02:25;3.05;;;2.03;;
31798;SDS011;18374;51.136;3.502;2022-09-12T20:04:55;4.90;;;2.00;;
31798;SDS011;18374;51.136;3.502;2022-09-12T20:11:21;6.83;;;2.10;;
31798;SDS011;18374;51.136;3.502;2022-09-12T20:19:17;3.70;;;2.45;;